sensor_id;sensor_type;location;lat;lon;timestamp;P1;durP1;ratioP1;P2;durP2;ratioP2
70132;SDS011;57495;49.922;7.966;2023-09-12T00:00:27;14.33;;;8.13;;
70132;SDS011;57495;49.922;7.966;2023-09-12T00:02:30;17.67;;;9.10;;
70132;SDS011;57495;49.922;7.966;2023-09-12T00:04:30;21.92;;;9.65;;
70132;SDS011;57495;49.922;7.966;2023-09-12T00:06:31;18.48;;;9.73;;
70132;SDS011;57495;49.922;7.966;2023-09-12T00:08:33;15.27;;;8.63;;
70132;SDS011;57495;49.922;7.966;2023-09-12T00:10:35;22.13;;;9.23;;
70132;SDS011;57495;49.922;7.966;2023-09-12T00:12:36;15.45;;;7.97;;
70132;SDS011;57495;49.922;7.966;2023-09-12T00:14:36;18.77;;;7.93;;
70132;SDS011;57495;49.922;7.966;2023-09-12T00:16:38;15.70;;;8.45;;
70132;SDS011;57495;49.922;7.966;2023-09-12T00:18:41;14.40;;;7.30;;
70132;SDS011;57495;49.922;7.966;2023-09-12T00:20:42;21.80;;;8.02;;
70132;SDS011;57495;49.922;7.966;2023-09-12T00:22:44;16.17;;;7.78;;
70132;SDS011;57495;49.922;7.966;2023-09-12T00:24:45;17.63;;;7.20;;
70132;SDS011;57495;49.922;7.966;2023-09-12T00:26:46;15.45;;;7.25;;
70132;SDS011;57495;49.922;7.966;2023-09-12T00:28:48;12.52;;;7.07;;
70132;SDS011;57495;49.922;7.966;2023-09-12T00:30:49;11.50;;;6.88;;
70132;SDS011;57495;49.922;7.966;2023-09-12T00:32:52;15.15;;;7.43;;
70132;SDS011;57495;49.922;7.966;2023-09-12T00:34:55;14.10;;;7.93;;
70132;SDS011;57495;49.922;7.966;2023-09-12T00:36:56;16.80;;;8.38;;
70132;SDS011;57495;49.922;7.966;2023-09-12T00:38:57;12.40;;;7.10;;
70132;SDS011;57495;49.922;7.966;2023-09-12T00:40:59;13.38;;;7.68;;
70132;SDS011;57495;49.922;7.966;2023-09-12T00:43:00;17.50;;;7.63;;
70132;SDS011;57495;49.922;7.966;2023-09-12T00:45:02;12.67;;;7.37;;
70132;SDS011;57495;49.922;7.966;2023-09-12T00:47:04;14.75;;;7.82;;
70132;SDS011;57495;49.922;7.966;2023-09-12T00:49:06;12.93;;;7.20;;
70132;SDS011;57495;49.922;7.966;2023-09-12T00:51:11;18.85;;;8.13;;
70132;SDS011;57495;49.922;7.966;2023-09-12T00:53:14;13.27;;;7.30;;
70132;SDS011;57495;49.922;7.966;2023-09-12T00:55:15;16.83;;;7.77;;
70132;SDS011;57495;49.922;7.966;2023-09-12T00:57:17;17.13;;;7.53;;
70132;SDS011;57495;49.922;7.966;2023-09-12T00:59:19;12.45;;;7.38;;
70132;SDS011;57495;49.922;7.966;2023-09-12T01:01:21;13.65;;;7.90;;
70132;SDS011;57495;49.922;7.966;2023-09-12T01:03:23;14.32;;;8.18;;
70132;SDS011;57495;49.922;7.966;2023-09-12T01:05:25;15.63;;;8.07;;
70132;SDS011;57495;49.922;7.966;2023-09-12T01:07:29;17.42;;;8.20;;
70132;SDS011;57495;49.922;7.966;2023-09-12T01:09:30;16.00;;;8.18;;
70132;SDS011;57495;49.922;7.966;2023-09-12T01:11:32;13.93;;;7.20;;
70132;SDS011;57495;49.922;7.966;2023-09-12T01:13:33;19.65;;;8.38;;
70132;SDS011;57495;49.922;7.966;2023-09-12T01:15:35;14.23;;;7.70;;
70132;SDS011;57495;49.922;7.966;2023-09-12T01:17:37;15.05;;;7.30;;
70132;SDS011;57495;49.922;7.966;2023-09-12T01:19:38;13.70;;;7.13;;
70132;SDS011;57495;49.922;7.966;2023-09-12T01:24:33;15.90;;;7.65;;
70132;SDS011;57495;49.922;7.966;2023-09-12T01:27:10;13.37;;;7.03;;
70132;SDS011;57495;49.922;7.966;2023-09-12T01:29:19;14.02;;;7.95;;
70132;SDS011;57495;49.922;7.966;2023-09-12T01:31:22;14.02;;;7.80;;
70132;SDS011;57495;49.922;7.966;2023-09-12T01:33:24;17.92;;;8.43;;
70132;SDS011;57495;49.922;7.966;2023-09-12T01:35:26;16.25;;;7.57;;
70132;SDS011;57495;49.922;7.966;2023-09-12T01:37:28;11.93;;;7.30;;
70132;SDS011;57495;49.922;7.966;2023-09-12T01:39:30;11.95;;;6.20;;
70132;SDS011;57495;49.922;7.966;2023-09-12T01:41:32;14.18;;;7.43;;
70132;SDS011;57495;49.922;7.966;2023-09-12T01:43:38;15.70;;;8.20;;
70132;SDS011;57495;49.922;7.966;2023-09-12T01:45:41;16.98;;;7.68;;
70132;SDS011;57495;49.922;7.966;2023-09-12T01:47:44;14.07;;;8.10;;
70132;SDS011;57495;49.922;7.966;2023-09-12T01:49:48;13.15;;;7.05;;
70132;SDS011;57495;49.922;7.966;2023-09-12T01:51:52;14.48;;;7.15;;
70132;SDS011;57495;49.922;7.966;2023-09-12T01:53:54;15.57;;;8.25;;
70132;SDS011;57495;49.922;7.966;2023-09-12T01:55:56;14.27;;;7.15;;
70132;SDS011;57495;49.922;7.966;2023-09-12T01:57:59;14.17;;;7.67;;
70132;SDS011;57495;49.922;7.966;2023-09-12T02:00:02;15.02;;;7.70;;
70132;SDS011;57495;49.922;7.966;2023-09-12T02:02:04;13.15;;;6.50;;
70132;SDS011;57495;49.922;7.966;2023-09-12T02:04:07;17.30;;;7.10;;
70132;SDS011;57495;49.922;7.966;2023-09-12T02:06:09;12.55;;;6.13;;
70132;SDS011;57495;49.922;7.966;2023-09-12T02:08:09;13.97;;;6.27;;
70132;SDS011;57495;49.922;7.966;2023-09-12T02:10:11;12.77;;;6.60;;
70132;SDS011;57495;49.922;7.966;2023-09-12T02:12:12;14.43;;;6.43;;
70132;SDS011;57495;49.922;7.966;2023-09-12T02:14:14;17.60;;;6.57;;
70132;SDS011;57495;49.922;7.966;2023-09-12T02:16:16;15.57;;;7.65;;
70132;SDS011;57495;49.922;7.966;2023-09-12T02:18:18;18.00;;;7.50;;
70132;SDS011;57495;49.922;7.966;2023-09-12T02:20:19;15.05;;;7.88;;
70132;SDS011;57495;49.922;7.966;2023-09-12T02:22:21;15.30;;;8.17;;
70132;SDS011;57495;49.922;7.966;2023-09-12T02:24:22;16.30;;;8.60;;
70132;SDS011;57495;49.922;7.966;2023-09-12T02:26:24;12.73;;;8.45;;
70132;SDS011;57495;49.922;7.966;2023-09-12T02:28:25;16.27;;;8.95;;
70132;SDS011;57495;49.922;7.966;2023-09-12T02:30:27;16.75;;;9.00;;
70132;SDS011;57495;49.922;7.966;2023-09-12T02:32:31;18.03;;;8.10;;
70132;SDS011;57495;49.922;7.966;2023-09-12T02:34:33;17.65;;;8.82;;
70132;SDS011;57495;49.922;7.966;2023-09-12T02:36:34;16.10;;;8.75;;
70132;SDS011;57495;49.922;7.966;2023-09-12T02:38:35;14.45;;;8.43;;
70132;SDS011;57495;49.922;7.966;2023-09-12T02:40:37;14.38;;;8.15;;
70132;SDS011;57495;49.922;7.966;2023-09-12T02:42:38;12.40;;;8.00;;
70132;SDS011;57495;49.922;7.966;2023-09-12T02:44:40;15.13;;;9.32;;
70132;SDS011;57495;49.922;7.966;2023-09-12T02:46:41;19.10;;;8.00;;
70132;SDS011;57495;49.922;7.966;2023-09-12T02:48:44;15.13;;;8.80;;
70132;SDS011;57495;49.922;7.966;2023-09-12T02:50:45;14.70;;;8.55;;
70132;SDS011;57495;49.922;7.966;2023-09-12T02:52:47;14.87;;;8.33;;
70132;SDS011;57495;49.922;7.966;2023-09-12T02:54:47;16.50;;;9.45;;
70132;SDS011;57495;49.922;7.966;2023-09-12T02:56:49;17.52;;;8.18;;
70132;SDS011;57495;49.922;7.966;2023-09-12T02:58:50;17.80;;;8.07;;
70132;SDS011;57495;49.922;7.966;2023-09-12T03:00:51;13.82;;;8.40;;
70132;SDS011;57495;49.922;7.966;2023-09-12T03:02:54;17.67;;;8.25;;
70132;SDS011;57495;49.922;7.966;2023-09-12T03:04:57;13.75;;;8.45;;
70132;SDS011;57495;49.922;7.966;2023-09-12T03:06:58;16.45;;;7.68;;
70132;SDS011;57495;49.922;7.966;2023-09-12T03:09:00;15.20;;;7.73;;
70132;SDS011;57495;49.922;7.966;2023-09-12T03:11:01;14.05;;;8.40;;
70132;SDS011;57495;49.922;7.966;2023-09-12T03:13:03;16.83;;;8.40;;
70132;SDS011;57495;49.922;7.966;2023-09-12T03:15:05;16.00;;;8.48;;
70132;SDS011;57495;49.922;7.966;2023-09-12T03:17:07;20.85;;;7.93;;
70132;SDS011;57495;49.922;7.966;2023-09-12T03:19:08;15.97;;;8.90;;
70132;SDS011;57495;49.922;7.966;2023-09-12T03:21:11;20.75;;;8.95;;
70132;SDS011;57495;49.922;7.966;2023-09-12T03:23:11;15.80;;;8.30;;
70132;SDS011;57495;49.922;7.966;2023-09-12T03:25:13;14.35;;;7.45;;
70132;SDS011;57495;49.922;7.966;2023-09-12T03:27:14;14.23;;;7.95;;
70132;SDS011;57495;49.922;7.966;2023-09-12T03:29:16;17.63;;;8.90;;
70132;SDS011;57495;49.922;7.966;2023-09-12T03:31:18;15.05;;;7.90;;
70132;SDS011;57495;49.922;7.966;2023-09-12T03:33:19;14.68;;;8.32;;
70132;SDS011;57495;49.922;7.966;2023-09-12T03:35:21;14.70;;;8.07;;
70132;SDS011;57495;49.922;7.966;2023-09-12T03:37:24;15.77;;;8.30;;
70132;SDS011;57495;49.922;7.966;2023-09-12T03:39:27;18.03;;;9.00;;
70132;SDS011;57495;49.922;7.966;2023-09-12T03:41:28;15.57;;;7.85;;
70132;SDS011;57495;49.922;7.966;2023-09-12T03:43:30;15.55;;;7.97;;
70132;SDS011;57495;49.922;7.966;2023-09-12T03:45:31;13.55;;;8.23;;
70132;SDS011;57495;49.922;7.966;2023-09-12T03:47:33;14.13;;;9.32;;
70132;SDS011;57495;49.922;7.966;2023-09-12T03:49:34;20.57;;;9.00;;
70132;SDS011;57495;49.922;7.966;2023-09-12T03:51:36;16.90;;;8.60;;
70132;SDS011;57495;49.922;7.966;2023-09-12T03:53:39;13.05;;;8.15;;
70132;SDS011;57495;49.922;7.966;2023-09-12T03:55:40;14.68;;;7.57;;
70132;SDS011;57495;49.922;7.966;2023-09-12T03:57:42;14.82;;;8.68;;
70132;SDS011;57495;49.922;7.966;2023-09-12T03:59:43;17.17;;;7.50;;
70132;SDS011;57495;49.922;7.966;2023-09-12T04:01:46;14.98;;;8.45;;
70132;SDS011;57495;49.922;7.966;2023-09-12T04:03:48;14.95;;;8.07;;
70132;SDS011;57495;49.922;7.966;2023-09-12T04:05:50;15.77;;;8.10;;
70132;SDS011;57495;49.922;7.966;2023-09-12T04:07:50;15.13;;;8.13;;
70132;SDS011;57495;49.922;7.966;2023-09-12T04:09:53;13.70;;;8.80;;
70132;SDS011;57495;49.922;7.966;2023-09-12T04:11:55;14.75;;;8.32;;
70132;SDS011;57495;49.922;7.966;2023-09-12T04:13:56;12.85;;;7.93;;
70132;SDS011;57495;49.922;7.966;2023-09-12T04:15:57;13.27;;;7.75;;
70132;SDS011;57495;49.922;7.966;2023-09-12T04:17:59;16.55;;;8.70;;
70132;SDS011;57495;49.922;7.966;2023-09-12T04:20:01;16.20;;;8.37;;
70132;SDS011;57495;49.922;7.966;2023-09-12T04:22:03;14.30;;;8.15;;
70132;SDS011;57495;49.922;7.966;2023-09-12T04:24:05;14.15;;;8.90;;
70132;SDS011;57495;49.922;7.966;2023-09-12T04:26:09;16.15;;;8.65;;
70132;SDS011;57495;49.922;7.966;2023-09-12T04:28:10;16.70;;;9.00;;
70132;SDS011;57495;49.922;7.966;2023-09-12T04:30:12;16.03;;;8.77;;
70132;SDS011;57495;49.922;7.966;2023-09-12T04:32:14;15.45;;;8.60;;
70132;SDS011;57495;49.922;7.966;2023-09-12T04:34:16;11.23;;;7.72;;
70132;SDS011;57495;49.922;7.966;2023-09-12T04:36:18;15.70;;;8.32;;
70132;SDS011;57495;49.922;7.966;2023-09-12T04:38:19;14.85;;;8.23;;
70132;SDS011;57495;49.922;7.966;2023-09-12T04:40:22;14.73;;;8.17;;
70132;SDS011;57495;49.922;7.966;2023-09-12T04:42:25;12.85;;;7.72;;
70132;SDS011;57495;49.922;7.966;2023-09-12T04:44:26;14.55;;;7.78;;
70132;SDS011;57495;49.922;7.966;2023-09-12T04:46:27;12.95;;;7.50;;
70132;SDS011;57495;49.922;7.966;2023-09-12T04:48:28;15.80;;;7.53;;
70132;SDS011;57495;49.922;7.966;2023-09-12T04:50:29;14.55;;;8.13;;
70132;SDS011;57495;49.922;7.966;2023-09-12T04:52:30;14.27;;;8.32;;
70132;SDS011;57495;49.922;7.966;2023-09-12T04:54:32;12.80;;;8.10;;
70132;SDS011;57495;49.922;7.966;2023-09-12T04:56:33;16.50;;;8.48;;
70132;SDS011;57495;49.922;7.966;2023-09-12T04:58:36;20.17;;;8.35;;
70132;SDS011;57495;49.922;7.966;2023-09-12T05:00:39;15.63;;;8.45;;
70132;SDS011;57495;49.922;7.966;2023-09-12T05:02:40;14.60;;;8.32;;
70132;SDS011;57495;49.922;7.966;2023-09-12T05:04:42;13.87;;;8.07;;
70132;SDS011;57495;49.922;7.966;2023-09-12T05:06:43;14.52;;;7.82;;
70132;SDS011;57495;49.922;7.966;2023-09-12T05:08:45;14.40;;;7.50;;
70132;SDS011;57495;49.922;7.966;2023-09-12T05:10:46;15.55;;;8.50;;
70132;SDS011;57495;49.922;7.966;2023-09-12T05:12:48;15.70;;;8.10;;
70132;SDS011;57495;49.922;7.966;2023-09-12T05:14:51;15.73;;;8.20;;
70132;SDS011;57495;49.922;7.966;2023-09-12T05:16:52;16.90;;;8.30;;
70132;SDS011;57495;49.922;7.966;2023-09-12T05:18:54;14.73;;;7.75;;
70132;SDS011;57495;49.922;7.966;2023-09-12T05:20:55;15.93;;;7.47;;
70132;SDS011;57495;49.922;7.966;2023-09-12T05:22:57;17.13;;;8.25;;
70132;SDS011;57495;49.922;7.966;2023-09-12T05:24:58;17.67;;;8.20;;
70132;SDS011;57495;49.922;7.966;2023-09-12T05:26:59;17.08;;;7.32;;
70132;SDS011;57495;49.922;7.966;2023-09-12T05:29:00;13.60;;;7.57;;
70132;SDS011;57495;49.922;7.966;2023-09-12T05:31:03;15.63;;;7.17;;
70132;SDS011;57495;49.922;7.966;2023-09-12T05:33:05;15.80;;;7.70;;
70132;SDS011;57495;49.922;7.966;2023-09-12T05:35:05;12.40;;;7.43;;
70132;SDS011;57495;49.922;7.966;2023-09-12T05:37:07;13.07;;;7.22;;
70132;SDS011;57495;49.922;7.966;2023-09-12T05:39:09;17.27;;;8.18;;
70132;SDS011;57495;49.922;7.966;2023-09-12T05:41:10;15.13;;;7.93;;
70132;SDS011;57495;49.922;7.966;2023-09-12T05:43:11;12.23;;;6.97;;
70132;SDS011;57495;49.922;7.966;2023-09-12T05:45:13;12.50;;;7.97;;
70132;SDS011;57495;49.922;7.966;2023-09-12T05:47:16;14.00;;;8.18;;
70132;SDS011;57495;49.922;7.966;2023-09-12T05:49:17;16.60;;;8.90;;
70132;SDS011;57495;49.922;7.966;2023-09-12T05:51:18;20.08;;;8.50;;
70132;SDS011;57495;49.922;7.966;2023-09-12T05:53:20;14.93;;;8.70;;
70132;SDS011;57495;49.922;7.966;2023-09-12T05:55:21;17.67;;;8.70;;
70132;SDS011;57495;49.922;7.966;2023-09-12T05:57:24;15.48;;;7.70;;
70132;SDS011;57495;49.922;7.966;2023-09-12T05:59:25;15.88;;;7.70;;
70132;SDS011;57495;49.922;7.966;2023-09-12T06:01:26;13.38;;;7.93;;
70132;SDS011;57495;49.922;7.966;2023-09-12T06:03:29;14.13;;;8.65;;
70132;SDS011;57495;49.922;7.966;2023-09-12T06:05:31;18.40;;;9.07;;
70132;SDS011;57495;49.922;7.966;2023-09-12T06:07:32;14.20;;;9.00;;
70132;SDS011;57495;49.922;7.966;2023-09-12T06:09:34;14.85;;;9.18;;
70132;SDS011;57495;49.922;7.966;2023-09-12T06:11:35;17.85;;;9.20;;
70132;SDS011;57495;49.922;7.966;2023-09-12T06:13:37;15.65;;;9.18;;
70132;SDS011;57495;49.922;7.966;2023-09-12T06:15:38;11.87;;;7.70;;
70132;SDS011;57495;49.922;7.966;2023-09-12T06:17:41;19.45;;;9.00;;
70132;SDS011;57495;49.922;7.966;2023-09-12T06:19:42;17.73;;;9.80;;
70132;SDS011;57495;49.922;7.966;2023-09-12T06:21:44;18.73;;;9.67;;
70132;SDS011;57495;49.922;7.966;2023-09-12T06:23:45;16.85;;;9.77;;
70132;SDS011;57495;49.922;7.966;2023-09-12T06:25:47;17.58;;;9.65;;
70132;SDS011;57495;49.922;7.966;2023-09-12T06:27:47;20.87;;;11.13;;
70132;SDS011;57495;49.922;7.966;2023-09-12T06:29:49;16.75;;;9.02;;
70132;SDS011;57495;49.922;7.966;2023-09-12T06:31:51;14.57;;;9.43;;
70132;SDS011;57495;49.922;7.966;2023-09-12T06:33:53;15.98;;;8.95;;
70132;SDS011;57495;49.922;7.966;2023-09-12T06:35:55;17.30;;;9.17;;
70132;SDS011;57495;49.922;7.966;2023-09-12T06:37:57;18.13;;;9.52;;
70132;SDS011;57495;49.922;7.966;2023-09-12T06:39:58;17.17;;;8.75;;
70132;SDS011;57495;49.922;7.966;2023-09-12T06:42:00;21.48;;;9.38;;
70132;SDS011;57495;49.922;7.966;2023-09-12T06:44:02;17.38;;;9.15;;
70132;SDS011;57495;49.922;7.966;2023-09-12T06:46:05;16.70;;;10.13;;
70132;SDS011;57495;49.922;7.966;2023-09-12T06:48:06;18.20;;;10.00;;
70132;SDS011;57495;49.922;7.966;2023-09-12T06:50:08;21.60;;;9.60;;
70132;SDS011;57495;49.922;7.966;2023-09-12T06:52:11;18.85;;;9.60;;
70132;SDS011;57495;49.922;7.966;2023-09-12T06:54:13;22.13;;;9.38;;
70132;SDS011;57495;49.922;7.966;2023-09-12T06:56:15;15.10;;;8.93;;
70132;SDS011;57495;49.922;7.966;2023-09-12T06:58:16;17.75;;;10.23;;
70132;SDS011;57495;49.922;7.966;2023-09-12T07:00:18;19.33;;;9.85;;
70132;SDS011;57495;49.922;7.966;2023-09-12T07:02:20;17.92;;;9.88;;
70132;SDS011;57495;49.922;7.966;2023-09-12T07:04:21;16.70;;;9.55;;
70132;SDS011;57495;49.922;7.966;2023-09-12T07:06:23;19.47;;;9.67;;
70132;SDS011;57495;49.922;7.966;2023-09-12T07:08:26;17.83;;;9.93;;
70132;SDS011;57495;49.922;7.966;2023-09-12T07:10:26;21.70;;;9.40;;
70132;SDS011;57495;49.922;7.966;2023-09-12T07:12:28;19.58;;;9.35;;
70132;SDS011;57495;49.922;7.966;2023-09-12T07:14:29;18.02;;;9.13;;
70132;SDS011;57495;49.922;7.966;2023-09-12T07:16:31;17.00;;;8.90;;
70132;SDS011;57495;49.922;7.966;2023-09-12T07:18:33;16.27;;;8.90;;
70132;SDS011;57495;49.922;7.966;2023-09-12T07:20:34;13.85;;;8.77;;
70132;SDS011;57495;49.922;7.966;2023-09-12T07:22:36;17.33;;;9.27;;
70132;SDS011;57495;49.922;7.966;2023-09-12T07:24:38;18.42;;;9.27;;
70132;SDS011;57495;49.922;7.966;2023-09-12T07:26:40;15.10;;;9.37;;
70132;SDS011;57495;49.922;7.966;2023-09-12T07:28:41;19.55;;;9.38;;
70132;SDS011;57495;49.922;7.966;2023-09-12T07:30:42;19.90;;;8.97;;
70132;SDS011;57495;49.922;7.966;2023-09-12T07:32:46;17.07;;;9.07;;
70132;SDS011;57495;49.922;7.966;2023-09-12T07:34:48;18.60;;;9.32;;
70132;SDS011;57495;49.922;7.966;2023-09-12T07:36:50;18.30;;;9.30;;
70132;SDS011;57495;49.922;7.966;2023-09-12T07:38:51;16.80;;;8.18;;
70132;SDS011;57495;49.922;7.966;2023-09-12T07:40:54;22.88;;;8.88;;
70132;SDS011;57495;49.922;7.966;2023-09-12T07:42:54;16.63;;;8.43;;
70132;SDS011;57495;49.922;7.966;2023-09-12T07:44:56;16.27;;;7.97;;
70132;SDS011;57495;49.922;7.966;2023-09-12T07:46:57;18.25;;;8.05;;
70132;SDS011;57495;49.922;7.966;2023-09-12T07:48:59;15.57;;;7.97;;
70132;SDS011;57495;49.922;7.966;2023-09-12T07:51:00;15.63;;;7.95;;
70132;SDS011;57495;49.922;7.966;2023-09-12T07:53:01;15.60;;;8.00;;
70132;SDS011;57495;49.922;7.966;2023-09-12T07:55:03;14.15;;;7.13;;
70132;SDS011;57495;49.922;7.966;2023-09-12T07:57:06;15.77;;;6.83;;
70132;SDS011;57495;49.922;7.966;2023-09-12T07:59:07;18.40;;;7.55;;
70132;SDS011;57495;49.922;7.966;2023-09-12T08:01:10;19.17;;;8.05;;
70132;SDS011;57495;49.922;7.966;2023-09-12T08:03:11;13.23;;;6.95;;
70132;SDS011;57495;49.922;7.966;2023-09-12T08:05:12;15.60;;;7.78;;
70132;SDS011;57495;49.922;7.966;2023-09-12T08:07:13;16.57;;;7.07;;
70132;SDS011;57495;49.922;7.966;2023-09-12T08:09:14;15.80;;;7.35;;
70132;SDS011;57495;49.922;7.966;2023-09-12T08:11:16;13.27;;;7.22;;
70132;SDS011;57495;49.922;7.966;2023-09-12T08:13:19;15.37;;;7.90;;
70132;SDS011;57495;49.922;7.966;2023-09-12T08:15:21;15.38;;;7.30;;
70132;SDS011;57495;49.922;7.966;2023-09-12T08:17:22;15.88;;;8.00;;
70132;SDS011;57495;49.922;7.966;2023-09-12T08:19:23;13.98;;;7.07;;
70132;SDS011;57495;49.922;7.966;2023-09-12T08:21:24;12.63;;;6.78;;
70132;SDS011;57495;49.922;7.966;2023-09-12T08:23:26;20.17;;;7.03;;
70132;SDS011;57495;49.922;7.966;2023-09-12T08:25:27;21.13;;;7.78;;
70132;SDS011;57495;49.922;7.966;2023-09-12T08:27:29;16.63;;;7.57;;
70132;SDS011;57495;49.922;7.966;2023-09-12T08:29:32;16.83;;;7.95;;
70132;SDS011;57495;49.922;7.966;2023-09-12T08:31:34;19.15;;;7.75;;
70132;SDS011;57495;49.922;7.966;2023-09-12T08:33:35;16.67;;;7.57;;
70132;SDS011;57495;49.922;7.966;2023-09-12T08:35:37;13.15;;;7.20;;
70132;SDS011;57495;49.922;7.966;2023-09-12T08:37:38;15.88;;;7.10;;
70132;SDS011;57495;49.922;7.966;2023-09-12T08:39:41;18.13;;;7.95;;
70132;SDS011;57495;49.922;7.966;2023-09-12T08:41:43;16.50;;;7.68;;
70132;SDS011;57495;49.922;7.966;2023-09-12T08:43:46;13.57;;;6.73;;
70132;SDS011;57495;49.922;7.966;2023-09-12T08:45:51;15.00;;;7.10;;
70132;SDS011;57495;49.922;7.966;2023-09-12T08:47:53;16.23;;;7.35;;
70132;SDS011;57495;49.922;7.966;2023-09-12T08:49:56;17.77;;;7.20;;
70132;SDS011;57495;49.922;7.966;2023-09-12T08:51:58;15.88;;;7.63;;
70132;SDS011;57495;49.922;7.966;2023-09-12T08:53:59;13.87;;;7.03;;
70132;SDS011;57495;49.922;7.966;2023-09-12T08:56:04;15.18;;;9.38;;
70132;SDS011;57495;49.922;7.966;2023-09-12T08:58:05;16.38;;;9.40;;
70132;SDS011;57495;49.922;7.966;2023-09-12T09:00:07;17.23;;;9.25;;
70132;SDS011;57495;49.922;7.966;2023-09-12T09:02:14;18.30;;;9.75;;
70132;SDS011;57495;49.922;7.966;2023-09-12T09:04:16;16.53;;;10.63;;
70132;SDS011;57495;49.922;7.966;2023-09-12T09:06:20;18.65;;;10.50;;
70132;SDS011;57495;49.922;7.966;2023-09-12T09:08:23;23.50;;;11.95;;
70132;SDS011;57495;49.922;7.966;2023-09-12T09:10:24;16.98;;;10.77;;
70132;SDS011;57495;49.922;7.966;2023-09-12T09:12:27;16.25;;;10.95;;
70132;SDS011;57495;49.922;7.966;2023-09-12T09:14:29;22.30;;;13.20;;
70132;SDS011;57495;49.922;7.966;2023-09-12T09:16:30;16.38;;;8.02;;
70132;SDS011;57495;49.922;7.966;2023-09-12T09:18:34;14.45;;;7.80;;
70132;SDS011;57495;49.922;7.966;2023-09-12T09:20:49;21.45;;;7.72;;
70132;SDS011;57495;49.922;7.966;2023-09-12T09:23:01;13.60;;;7.80;;
70132;SDS011;57495;49.922;7.966;2023-09-12T09:25:09;15.50;;;7.67;;
70132;SDS011;57495;49.922;7.966;2023-09-12T09:27:12;20.05;;;8.43;;
70132;SDS011;57495;49.922;7.966;2023-09-12T09:29:45;17.58;;;8.65;;
70132;SDS011;57495;49.922;7.966;2023-09-12T09:31:48;19.75;;;7.78;;
70132;SDS011;57495;49.922;7.966;2023-09-12T09:33:52;17.90;;;7.53;;
70132;SDS011;57495;49.922;7.966;2023-09-12T09:35:54;20.27;;;7.83;;
70132;SDS011;57495;49.922;7.966;2023-09-12T09:38:05;17.83;;;7.75;;
70132;SDS011;57495;49.922;7.966;2023-09-12T09:40:07;17.23;;;7.50;;
70132;SDS011;57495;49.922;7.966;2023-09-12T09:42:10;24.77;;;8.95;;
70132;SDS011;57495;49.922;7.966;2023-09-12T09:44:12;15.80;;;7.78;;
70132;SDS011;57495;49.922;7.966;2023-09-12T09:46:14;15.37;;;7.20;;
70132;SDS011;57495;49.922;7.966;2023-09-12T09:48:19;10.93;;;6.57;;
70132;SDS011;57495;49.922;7.966;2023-09-12T09:50:23;11.75;;;7.10;;
70132;SDS011;57495;49.922;7.966;2023-09-12T09:52:25;15.82;;;7.53;;
70132;SDS011;57495;49.922;7.966;2023-09-12T09:54:26;17.90;;;8.18;;
70132;SDS011;57495;49.922;7.966;2023-09-12T09:56:28;15.00;;;7.73;;
70132;SDS011;57495;49.922;7.966;2023-09-12T09:58:30;13.98;;;7.88;;
70132;SDS011;57495;49.922;7.966;2023-09-12T10:00:32;12.10;;;7.47;;
70132;SDS011;57495;49.922;7.966;2023-09-12T10:02:36;14.70;;;7.72;;
70132;SDS011;57495;49.922;7.966;2023-09-12T10:04:42;17.40;;;7.22;;
70132;SDS011;57495;49.922;7.966;2023-09-12T10:06:46;15.53;;;6.87;;
70132;SDS011;57495;49.922;7.966;2023-09-12T10:08:49;11.32;;;7.03;;
70132;SDS011;57495;49.922;7.966;2023-09-12T10:10:51;13.77;;;7.85;;
70132;SDS011;57495;49.922;7.966;2023-09-12T10:12:53;20.08;;;8.63;;
70132;SDS011;57495;49.922;7.966;2023-09-12T10:14:58;16.23;;;7.80;;
70132;SDS011;57495;49.922;7.966;2023-09-12T10:17:01;15.07;;;7.23;;
70132;SDS011;57495;49.922;7.966;2023-09-12T10:19:06;14.45;;;7.90;;
70132;SDS011;57495;49.922;7.966;2023-09-12T10:21:11;14.38;;;6.95;;
70132;SDS011;57495;49.922;7.966;2023-09-12T10:23:19;15.40;;;7.28;;
70132;SDS011;57495;49.922;7.966;2023-09-12T10:25:24;16.33;;;7.57;;
70132;SDS011;57495;49.922;7.966;2023-09-12T10:27:26;15.97;;;6.70;;
70132;SDS011;57495;49.922;7.966;2023-09-12T10:29:29;14.35;;;7.60;;
70132;SDS011;57495;49.922;7.966;2023-09-12T10:31:32;16.05;;;7.15;;
70132;SDS011;57495;49.922;7.966;2023-09-12T10:33:35;15.45;;;7.35;;
70132;SDS011;57495;49.922;7.966;2023-09-12T10:35:36;14.00;;;7.20;;
70132;SDS011;57495;49.922;7.966;2023-09-12T10:37:40;15.83;;;7.30;;
70132;SDS011;57495;49.922;7.966;2023-09-12T10:39:47;15.32;;;8.43;;
70132;SDS011;57495;49.922;7.966;2023-09-12T10:41:49;13.48;;;7.80;;
70132;SDS011;57495;49.922;7.966;2023-09-12T10:43:52;11.35;;;7.00;;
70132;SDS011;57495;49.922;7.966;2023-09-12T10:45:55;13.73;;;8.35;;
70132;SDS011;57495;49.922;7.966;2023-09-12T10:47:59;13.90;;;8.30;;
70132;SDS011;57495;49.922;7.966;2023-09-12T10:50:01;13.77;;;7.70;;
70132;SDS011;57495;49.922;7.966;2023-09-12T10:52:03;16.05;;;7.78;;
70132;SDS011;57495;49.922;7.966;2023-09-12T10:54:05;17.52;;;13.45;;
70132;SDS011;57495;49.922;7.966;2023-09-12T10:56:16;15.88;;;12.85;;
70132;SDS011;57495;49.922;7.966;2023-09-12T10:58:19;14.57;;;12.30;;
70132;SDS011;57495;49.922;7.966;2023-09-12T11:00:20;16.50;;;12.13;;
70132;SDS011;57495;49.922;7.966;2023-09-12T11:02:28;17.33;;;11.43;;
70132;SDS011;57495;49.922;7.966;2023-09-12T11:04:31;14.23;;;11.57;;
70132;SDS011;57495;49.922;7.966;2023-09-12T11:06:34;13.35;;;10.52;;
70132;SDS011;57495;49.922;7.966;2023-09-12T11:08:36;12.23;;;10.80;;
70132;SDS011;57495;49.922;7.966;2023-09-12T11:10:39;18.25;;;11.43;;
70132;SDS011;57495;49.922;7.966;2023-09-12T11:12:42;16.42;;;11.55;;
70132;SDS011;57495;49.922;7.966;2023-09-12T11:15:02;15.93;;;11.27;;
70132;SDS011;57495;49.922;7.966;2023-09-12T11:17:19;15.05;;;11.45;;
70132;SDS011;57495;49.922;7.966;2023-09-12T11:19:22;18.80;;;7.70;;
70132;SDS011;57495;49.922;7.966;2023-09-12T11:21:31;15.32;;;7.32;;
70132;SDS011;57495;49.922;7.966;2023-09-12T11:23:33;13.90;;;7.78;;
70132;SDS011;57495;49.922;7.966;2023-09-12T11:25:35;12.73;;;7.55;;
70132;SDS011;57495;49.922;7.966;2023-09-12T11:27:44;13.90;;;7.60;;
70132;SDS011;57495;49.922;7.966;2023-09-12T11:30:03;15.95;;;8.15;;
70132;SDS011;57495;49.922;7.966;2023-09-12T11:32:06;15.70;;;7.88;;
70132;SDS011;57495;49.922;7.966;2023-09-12T11:34:09;14.75;;;7.13;;
70132;SDS011;57495;49.922;7.966;2023-09-12T11:36:12;14.27;;;6.77;;
70132;SDS011;57495;49.922;7.966;2023-09-12T11:38:14;12.38;;;7.20;;
70132;SDS011;57495;49.922;7.966;2023-09-12T11:40:41;12.93;;;7.00;;
70132;SDS011;57495;49.922;7.966;2023-09-12T11:42:44;13.68;;;6.82;;
70132;SDS011;57495;49.922;7.966;2023-09-12T11:44:46;14.13;;;7.35;;
70132;SDS011;57495;49.922;7.966;2023-09-12T11:46:50;12.60;;;7.47;;
70132;SDS011;57495;49.922;7.966;2023-09-12T11:48:51;16.02;;;7.07;;
70132;SDS011;57495;49.922;7.966;2023-09-12T11:50:54;10.77;;;6.93;;
70132;SDS011;57495;49.922;7.966;2023-09-12T11:53:00;13.93;;;7.50;;
70132;SDS011;57495;49.922;7.966;2023-09-12T11:55:02;16.60;;;7.15;;
70132;SDS011;57495;49.922;7.966;2023-09-12T11:57:03;17.00;;;7.70;;
70132;SDS011;57495;49.922;7.966;2023-09-12T11:59:07;12.85;;;7.10;;
70132;SDS011;57495;49.922;7.966;2023-09-12T12:01:08;18.83;;;7.32;;
70132;SDS011;57495;49.922;7.966;2023-09-12T12:03:14;15.95;;;7.40;;
70132;SDS011;57495;49.922;7.966;2023-09-12T12:05:16;12.73;;;7.68;;
70132;SDS011;57495;49.922;7.966;2023-09-12T12:07:17;13.10;;;8.00;;
70132;SDS011;57495;49.922;7.966;2023-09-12T12:09:19;15.68;;;7.57;;